首页
METAR-TAF:

METAR-TAF

机场 :

曼哈頓下城直升機場

纽约, 紐約州, 美国

纬度: 40-42-04N, 经度: 074-00-32W, 海拔: 2米

当前天气观测

该预报发布于39分钟前的08:56 UTC
风速5节,风向西转西南
温度 4°C
湿度 87%
气压 1009 hPa
天空无云

METAR: KJRB 260856Z AUTO 24005KT CLR 04/02 A2981 RMK AO2 SLP095 T00390022 51003 PWINO

时间: 04:35 (09:35 UTC)


TAF: 丢失

超过4000个机场的气象观测和天气预报(METAR&TAF报告)。

可查询的气象台以黄色和红色小点在地图上表示。

将鼠标移到小点上方,可查看气象台名称。

然后点击查看天气观测和预报。

如需切换地图:点击带黑十字的绿色按钮放大地图;点击带横线的绿色按钮缩小地图;或者点击绿色箭头查看邻近地区的地图。


METAR-TAF: